Larkhill, United Kingdom
Current Conditions -  °F | °C
As of 6:50 AM on Friday 19 Dec 2014 (Local Time) from EGDM Reporting Station
Broken Clouds Broken Clouds  
Wind Chill: 50°   Ceiling: 2200
Heat Index: 50°   Visibility: 6mi
Dew Point: 46°   Wind: 17mph
Humidity: 87%   Direction: 280°W
Pressure: 29.85"   Gusts: NA
Location:  51.2°N, 1.8°W
Report Text: EGDM 190650Z AUTO 28015KT 9999 BKN022/// SCT100/// 10/08 Q1011 RERA
Loading
Personal Weather Stations






























Interactive Weather Map New forecast layout! Learn more

10-Day Weather Forecast

Advertisements
Track Severe Weather on mobile